In Rescue
 
Open Full Screen Window  High Contrast Mode
Wind Gusting 00 knots
04
November 25, 2020 5:11 AM EST
Present Weather: Light Snow
Weather Information
Wind Direction
  130 °
Wind Speed
  04 kt (5 mph)
Wind Gust
  00 kt (0 mph)
Altimeter
30.05 in
Visibility
4 SM
Temperature
07° C
45° F
Dewpoint
05° C
41° F
Humidity
87%
1hr Rain Fall
00.03 in.
24hr Rain Fall
00.09 in.
Sky Condition
Overcast @ 6,500 ft
MVFR

METAR KI69 251011Z AUTO 13004KT 4SM -SN OVC065 07/05 A3005 RMK AO2 P0003 T00650048

FAA Disclaimer: The data displayed is for advisory purposes only and is not to be used for flight planning or operations.